Amado, AZ

12:53 PM MST on September 19, 2014 (GMT -0700)
Arivaca Rd. | Change Station
CLOSE
Current Station
Personal Weather Station
Location: Amado, AZ
Elevation: 3200 ft
Nearby Weather Stations
Active Advisory: Areal Flood Warning Active Notice: Record Report

Elev 3200 ft 31.72 °N, 111.12 °W | Updated 12 minutes ago

Partly Cloudy
Partly Cloudy
76.0 °F
Feels Like 77 °F
N
0.0
Wind Variable Wind from SW
Gusts 0.0 mph

Today
High -- | Low -- °F
--% Chance of Precip.
Yesterday
High -- | Low -- °F
Precip. -- in
6:10 AM 6:24 PM
Waning Crescent, 17% visible
Pressure 29.81 in
Visibility 10.0 miles
Clouds Clear
Heat Index 77 °F
Dew Point 69 °F
Humidity 78%
Rainfall 0.56 in
Snow Depth 0 in
UV 10 out of 12
Pollen 6.20 out of 12
Air Quality Not available.
Flu Activity Not available.
METAR KOLS 191854Z AUTO VRB04KT 10SM CLR 27/18 A3000 RMK AO2 SLP093 T02720178

More Conditions Fewer Conditions

Pressure 29.81 in
Visibility 10.0 miles
Clouds Clear
Heat Index 77 °F
Dew Point 69 °F
Humidity 78%
Rainfall 0.56 in
Snow Depth 0 in
UV 10 out of 12
Pollen 6.20 out of 12
Air Quality Not available.
Flu Activity Not available.
METAR KOLS 191854Z AUTO VRB04KT 10SM CLR 27/18 A3000 RMK AO2 SLP093 T02720178

More Conditions Fewer Conditions

10-Day Weather Forecast

Almanac

Astronomy

Sep. 19, 2014 Rise Set
Actual Time 6:10 AM MST 6:24 PM MST
Civil Twilight 5:46 AM MST 6:49 PM MST
Nautical Twilight 5:17 AM MST 7:17 PM MST
Astronomical Twilight 4:49 AM MST 7:46 PM MST
Moon 2:11 AM MST 3:44 PM MST
Length of Visible Light 13h 02m
Length of Day
12h 14m
Tomorrow will be 1m 56s shorter.
Waning Crescent, 17% of the Moon is Illuminated
Today
Waning Crescent
Sep 24
New
Oct 1
First Quarter
Oct 8
Full
Oct 15
Last Quarter

Today's Extremes

State Highs State Lows

Community

WunderPhotos

Upload Photos

1,754,687 photos uploaded!

WunderBlogs® & News

By Dr. Jeff Masters
Director of Meteorology, Weather Underground
By Kari Strenfel
Meteorologist, Weather Underground
By Christopher C. Burt
Weather Historian, Weather Underground
September 19, 2014
September 19, 2014
September 19, 2014

Nearby

Snow Depth

Station Depth Elevation
Workman Creek 1 in 6900 ft
Snowslide Canyon 0 in 9730 ft

Earthquake Activity

City Distance Mag. Time & Date
No recent earthquake activity has been reported nearby.
Minimum magnitude displayed is 2.5.

Coastal Water Temperatures

Place Temperature
No Stations Reporting

Nearby Weather Stations